createdAt,value
2023-04-28T00:01:12.230Z,3.03
2023-04-28T00:03:39.690Z,3.42
2023-04-28T00:06:07.101Z,3.00
2023-04-28T00:08:36.747Z,3.00
2023-04-28T00:11:04.952Z,3.47
2023-04-28T00:16:00.205Z,2.67
2023-04-28T00:20:55.166Z,4.00
2023-04-28T00:23:22.904Z,3.15
2023-04-28T00:25:53.478Z,4.28
2023-04-28T00:28:32.849Z,2.63
2023-04-28T00:31:01.151Z,3.25
2023-04-28T00:33:28.372Z,4.38
2023-04-28T00:36:01.986Z,3.65
2023-04-28T00:38:31.683Z,3.55
2023-04-28T00:40:58.928Z,2.75
2023-04-28T00:43:26.188Z,3.53
2023-04-28T00:45:53.687Z,3.63
2023-04-28T00:48:21.892Z,2.60
2023-04-28T00:50:49.350Z,3.65
2023-04-28T00:53:16.824Z,2.80
2023-04-28T00:55:44.070Z,4.72
2023-04-28T00:58:11.371Z,4.00
2023-04-28T01:00:39.386Z,3.55
2023-04-28T01:03:06.845Z,2.67
2023-04-28T01:05:34.374Z,4.43
2023-04-28T01:08:01.649Z,3.10
2023-04-28T01:10:28.878Z,3.53
2023-04-28T01:12:56.118Z,2.92
2023-04-28T01:15:23.381Z,4.55
2023-04-28T01:17:50.876Z,2.83
2023-04-28T01:20:18.199Z,2.70
2023-04-28T01:22:45.484Z,3.00
2023-04-28T01:25:12.699Z,3.67
2023-04-28T01:27:39.922Z,2.88
2023-04-28T01:30:07.696Z,2.65
2023-04-28T01:32:34.987Z,3.00
2023-04-28T01:35:02.226Z,3.03
2023-04-28T01:37:29.529Z,2.50
2023-04-28T01:39:56.838Z,3.07
2023-04-28T01:42:24.098Z,2.57
2023-04-28T01:44:54.030Z,3.60
2023-04-28T01:47:21.335Z,3.00
2023-04-28T01:49:50.098Z,3.63
2023-04-28T01:52:19.766Z,2.60
2023-04-28T01:54:47.116Z,3.38
2023-04-28T01:57:15.528Z,2.63
2023-04-28T01:59:44.466Z,3.78
2023-04-28T02:02:12.101Z,3.40
2023-04-28T02:04:39.714Z,3.03
2023-04-28T02:07:07.357Z,3.42
2023-04-28T02:09:34.743Z,4.38
2023-04-28T02:12:02.458Z,2.50
2023-04-28T02:14:32.305Z,3.42
2023-04-28T02:17:00.008Z,3.05
2023-04-28T02:19:27.253Z,3.70
2023-04-28T02:21:54.480Z,3.53
2023-04-28T02:24:21.683Z,3.50
2023-04-28T02:26:51.269Z,2.88
2023-04-28T02:29:18.508Z,4.63
2023-04-28T02:31:46.335Z,3.22
2023-04-28T02:34:15.053Z,3.67
2023-04-28T02:36:44.784Z,2.92
2023-04-28T02:39:14.526Z,3.25
2023-04-28T02:41:41.738Z,4.28
2023-04-28T02:44:08.956Z,3.35
2023-04-28T02:46:36.273Z,4.10
2023-04-28T02:49:03.728Z,3.83
2023-04-28T02:51:31.576Z,3.83
2023-04-28T02:53:58.817Z,4.07
2023-04-28T02:56:26.155Z,3.67
2023-04-28T02:58:53.576Z,4.50
2023-04-28T03:01:20.840Z,3.13
2023-04-28T03:03:48.244Z,3.23
2023-04-28T03:06:15.711Z,2.75
2023-04-28T03:08:42.949Z,2.67
2023-04-28T03:11:11.106Z,3.67
2023-04-28T03:16:05.716Z,3.07
2023-04-28T03:18:33.001Z,3.35
2023-04-28T03:21:00.205Z,3.10
2023-04-28T03:23:27.447Z,2.90
2023-04-28T03:25:54.768Z,3.00
2023-04-28T03:28:22.017Z,3.13
2023-04-28T03:30:51.708Z,3.07
2023-04-28T03:33:18.994Z,4.25
2023-04-28T03:35:46.478Z,3.30
2023-04-28T03:38:13.776Z,3.25
2023-04-28T03:40:41.036Z,2.97
2023-04-28T03:43:08.284Z,2.63
2023-04-28T03:45:35.585Z,3.33
2023-04-28T03:48:02.871Z,3.00
2023-04-28T03:50:30.136Z,2.87
2023-04-28T03:52:57.342Z,3.42
2023-04-28T03:55:26.247Z,2.65
2023-04-28T03:57:53.650Z,3.08
2023-04-28T04:00:20.974Z,2.90
2023-04-28T04:02:48.526Z,2.73
2023-04-28T04:05:16.087Z,3.38
2023-04-28T04:07:43.521Z,3.30
2023-04-28T04:10:11.108Z,2.60
2023-04-28T04:12:38.317Z,2.80
2023-04-28T04:15:06.120Z,2.75
2023-04-28T04:17:33.421Z,4.03
2023-04-28T04:20:00.694Z,2.83
2023-04-28T04:22:30.476Z,3.47
2023-04-28T04:24:57.704Z,3.28
2023-04-28T04:27:24.961Z,3.83
2023-04-28T04:29:52.162Z,3.20
2023-04-28T04:32:19.398Z,3.58
2023-04-28T04:34:46.734Z,3.67
2023-04-28T04:37:14.000Z,3.33
2023-04-28T04:39:41.261Z,2.67
2023-04-28T04:42:23.446Z,3.10
2023-04-28T04:44:52.404Z,4.43
2023-04-28T04:47:19.714Z,3.47
2023-04-28T04:49:47.052Z,5.87
2023-04-28T04:52:14.380Z,3.60
2023-04-28T04:54:41.639Z,6.13
2023-04-28T04:57:08.849Z,4.30
2023-04-28T04:59:38.560Z,4.38
2023-04-28T05:02:05.860Z,9.13
2023-04-28T05:04:33.337Z,8.07
2023-04-28T05:07:00.803Z,11.02
2023-04-28T05:09:29.131Z,12.87
2023-04-28T05:11:56.789Z,7.10
2023-04-28T05:14:24.106Z,5.13
2023-04-28T05:16:51.530Z,5.40
2023-04-28T05:19:18.950Z,7.18
2023-04-28T05:21:47.691Z,5.50
2023-04-28T05:24:15.839Z,6.22
2023-04-28T05:29:10.543Z,4.50
2023-04-28T05:31:37.863Z,6.57
2023-04-28T05:34:05.170Z,8.80
2023-04-28T05:36:32.419Z,7.18
2023-04-28T05:39:00.498Z,3.57
2023-04-28T05:41:27.733Z,8.13
2023-04-28T05:43:54.976Z,4.60
2023-04-28T05:46:30.631Z,7.37
2023-04-28T05:48:58.590Z,7.65
2023-04-28T05:51:27.193Z,8.97
2023-04-28T05:53:54.401Z,6.30
2023-04-28T05:56:21.760Z,8.93
2023-04-28T05:58:51.402Z,8.93
2023-04-28T06:01:21.382Z,9.02
2023-04-28T06:03:48.841Z,9.82
2023-04-28T06:06:16.431Z,10.10
2023-04-28T06:08:44.024Z,5.75
2023-04-28T06:11:11.808Z,8.93
2023-04-28T06:13:39.013Z,9.35
2023-04-28T06:16:06.515Z,9.07
2023-04-28T06:18:33.824Z,12.23
2023-04-28T06:21:01.366Z,18.92
2023-04-28T06:23:28.765Z,17.13
2023-04-28T06:25:56.040Z,19.10
2023-04-28T06:28:23.250Z,19.03
2023-04-28T06:30:50.480Z,19.30
2023-04-28T06:33:17.663Z,17.00
2023-04-28T06:35:45.059Z,15.90
2023-04-28T06:38:12.259Z,17.47
2023-04-28T06:40:40.820Z,15.90
2023-04-28T06:43:08.055Z,17.30
2023-04-28T06:45:35.330Z,16.05
2023-04-28T06:48:02.603Z,14.60
2023-04-28T06:50:30.027Z,13.80
2023-04-28T06:52:58.764Z,11.87
2023-04-28T06:55:27.407Z,12.50
2023-04-28T06:57:54.795Z,11.63
2023-04-28T07:00:22.174Z,12.67
2023-04-28T07:02:49.584Z,13.00
2023-04-28T07:05:17.070Z,14.95
2023-04-28T07:07:44.785Z,9.47
2023-04-28T07:10:13.329Z,12.57
2023-04-28T07:12:41.004Z,10.32
2023-04-28T07:15:10.105Z,10.52
2023-04-28T07:17:37.665Z,9.02
2023-04-28T07:20:05.474Z,9.07
2023-04-28T07:22:32.924Z,11.50
2023-04-28T07:25:00.168Z,9.38
2023-04-28T07:27:27.408Z,9.30
2023-04-28T07:29:54.656Z,9.27
2023-04-28T07:32:22.028Z,9.80
2023-04-28T07:34:49.233Z,8.27
2023-04-28T07:37:17.080Z,5.90
2023-04-28T07:39:44.370Z,6.13
2023-04-28T07:42:11.707Z,5.68
2023-04-28T07:44:39.072Z,6.53
2023-04-28T07:47:06.647Z,6.53
2023-04-28T07:49:33.899Z,7.07
2023-04-28T07:52:01.473Z,7.50
2023-04-28T07:54:28.729Z,6.57
2023-04-28T07:57:00.179Z,4.82
2023-04-28T07:59:27.547Z,5.18
2023-04-28T08:01:54.911Z,5.97
2023-04-28T08:04:22.613Z,7.20
2023-04-28T08:06:50.289Z,6.05
2023-04-28T08:09:17.527Z,5.83
2023-04-28T08:11:44.792Z,8.65
2023-04-28T08:14:12.236Z,4.70
2023-04-28T08:16:41.439Z,5.70
2023-04-28T08:19:08.782Z,5.97
2023-04-28T08:21:36.413Z,6.03
2023-04-28T08:24:03.697Z,4.40
2023-04-28T08:26:31.271Z,4.57
2023-04-28T08:28:58.509Z,5.72
2023-04-28T08:31:25.830Z,4.57
2023-04-28T08:33:54.348Z,4.80
2023-04-28T08:36:23.676Z,5.75
2023-04-28T08:41:19.558Z,4.25
2023-04-28T08:43:46.801Z,4.10
2023-04-28T08:46:15.541Z,4.40
2023-04-28T08:48:45.248Z,6.20
2023-04-28T08:51:19.084Z,3.42
2023-04-28T08:56:23.312Z,5.25
2023-04-28T08:58:51.320Z,3.72
2023-04-28T09:01:18.719Z,5.80
2023-04-28T09:03:47.844Z,3.20
2023-04-28T09:06:15.439Z,3.80
2023-04-28T09:08:43.002Z,4.10
2023-04-28T09:11:11.905Z,5.07
2023-04-28T09:13:40.232Z,5.25
2023-04-28T09:16:08.033Z,3.22
2023-04-28T09:18:37.666Z,3.35
2023-04-28T09:21:08.712Z,4.32
2023-04-28T09:23:36.806Z,7.88
2023-04-28T09:26:08.199Z,4.03
2023-04-28T09:28:36.467Z,4.57
2023-04-28T09:33:31.509Z,4.18
2023-04-28T09:35:58.882Z,3.20
2023-04-28T09:38:26.309Z,3.47
2023-04-28T09:41:03.673Z,3.63
2023-04-28T09:43:35.057Z,4.30
2023-04-28T09:46:03.343Z,3.55
2023-04-28T09:48:32.169Z,2.60
2023-04-28T09:51:00.661Z,4.13
2023-04-28T09:53:28.368Z,4.90
2023-04-28T09:55:56.859Z,5.03
2023-04-28T09:58:24.959Z,3.78
2023-04-28T10:00:56.123Z,3.20
2023-04-28T10:03:29.583Z,3.35
2023-04-28T10:05:58.443Z,3.15
2023-04-28T10:08:28.567Z,3.20
2023-04-28T10:10:56.918Z,2.67
2023-04-28T10:13:24.654Z,4.03
2023-04-28T10:15:54.999Z,2.90
2023-04-28T10:18:23.623Z,2.72
2023-04-28T10:20:53.997Z,3.00
2023-04-28T10:23:40.265Z,2.88
2023-04-28T10:26:11.230Z,3.97
2023-04-28T10:28:38.689Z,3.47
2023-04-28T10:31:13.295Z,6.40
2023-04-28T10:33:41.367Z,6.45
2023-04-28T10:36:08.775Z,5.47
2023-04-28T10:38:36.685Z,4.15
2023-04-28T10:41:04.503Z,7.68
2023-04-28T10:43:31.972Z,7.97
2023-04-28T10:46:02.263Z,5.28
2023-04-28T10:48:39.923Z,5.05
2023-04-28T10:51:09.310Z,4.55
2023-04-28T10:53:46.155Z,3.65
2023-04-28T10:56:18.703Z,7.10
2023-04-28T10:58:46.599Z,9.85
2023-04-28T11:01:19.844Z,6.50
2023-04-28T11:04:07.544Z,4.75
2023-04-28T11:09:06.065Z,3.45
2023-04-28T11:11:36.169Z,5.20
2023-04-28T11:14:18.970Z,5.95
2023-04-28T11:16:52.014Z,6.93
2023-04-28T11:19:20.342Z,5.40
2023-04-28T11:24:15.770Z,6.30
2023-04-28T11:26:43.796Z,8.10
2023-04-28T11:29:11.764Z,3.83
2023-04-28T11:31:39.431Z,4.65
2023-04-28T11:34:07.862Z,5.63
2023-04-28T11:36:36.453Z,4.53
2023-04-28T11:39:05.094Z,2.88
2023-04-28T11:41:35.059Z,3.67
2023-04-28T11:44:02.305Z,3.45
2023-04-28T11:46:29.572Z,2.63
2023-04-28T11:49:06.620Z,2.75
2023-04-28T11:51:39.869Z,2.72
2023-04-28T11:54:08.000Z,3.42
2023-04-28T11:56:39.658Z,2.78
2023-04-28T11:59:10.710Z,3.30
2023-04-28T12:01:51.863Z,1.95
2023-04-28T12:04:36.406Z,4.40
2023-04-28T12:07:05.191Z,4.63
2023-04-28T12:09:33.102Z,2.08
2023-04-28T12:12:03.090Z,1.70
2023-04-28T12:14:32.057Z,4.22
2023-04-28T12:16:59.346Z,4.65
2023-04-28T12:19:26.916Z,1.63
2023-04-28T12:22:01.020Z,3.53
2023-04-28T12:24:28.614Z,2.30
2023-04-28T12:26:55.973Z,2.97
2023-04-28T12:29:39.486Z,5.63
2023-04-28T12:32:11.060Z,3.63
2023-04-28T12:34:39.788Z,3.67
2023-04-28T12:37:07.375Z,3.33
2023-04-28T12:39:37.749Z,2.92
2023-04-28T12:42:09.205Z,1.83
2023-04-28T12:44:37.706Z,2.90
2023-04-28T12:47:08.793Z,2.80
2023-04-28T12:49:36.529Z,3.35
2023-04-28T12:52:04.485Z,1.83
2023-04-28T12:54:31.844Z,1.60
2023-04-28T12:56:59.092Z,5.80
2023-04-28T12:59:26.525Z,3.13
2023-04-28T13:01:54.003Z,4.32
2023-04-28T13:04:21.692Z,2.60
2023-04-28T13:06:49.231Z,1.75
2023-04-28T13:09:16.757Z,4.10
2023-04-28T13:11:44.216Z,2.65
2023-04-28T13:14:11.548Z,6.82
2023-04-28T13:16:38.965Z,3.17
2023-04-28T13:19:10.626Z,2.00
2023-04-28T13:21:39.463Z,2.22
2023-04-28T13:24:06.982Z,3.58
2023-04-28T13:26:34.258Z,4.53
2023-04-28T13:29:02.413Z,1.65
2023-04-28T13:33:58.211Z,1.73
2023-04-28T13:36:26.888Z,2.60
2023-04-28T13:38:54.126Z,2.17
2023-04-28T13:41:21.732Z,2.63
2023-04-28T13:43:51.406Z,1.40
2023-04-28T13:46:18.891Z,2.30
2023-04-28T13:48:46.187Z,2.30
2023-04-28T13:51:13.477Z,1.40
2023-04-28T13:53:41.212Z,1.70
2023-04-28T13:56:09.153Z,1.70
2023-04-28T13:58:36.969Z,1.73
2023-04-28T14:01:04.533Z,1.65
2023-04-28T14:03:32.057Z,1.70
2023-04-28T14:05:59.580Z,2.55
2023-04-28T14:08:28.015Z,1.83
2023-04-28T14:10:55.692Z,2.28
2023-04-28T14:13:24.624Z,2.10
2023-04-28T14:15:59.070Z,3.63
2023-04-28T14:18:27.423Z,1.80
2023-04-28T14:20:54.826Z,6.93
2023-04-28T15:04:07.224Z,41.25
2023-04-28T15:06:34.878Z,24.75
2023-04-28T15:09:02.207Z,20.05
2023-04-28T15:11:29.549Z,17.57
2023-04-28T15:13:57.088Z,7.35
2023-04-28T15:16:24.363Z,12.60
2023-04-28T15:18:51.676Z,10.07
2023-04-28T15:21:18.933Z,16.10
2023-04-28T15:23:46.309Z,14.27
2023-04-28T15:26:13.541Z,14.27
2023-04-28T15:28:43.896Z,13.50
2023-04-28T15:31:11.202Z,6.13
2023-04-28T15:33:39.001Z,5.95
2023-04-28T15:36:06.330Z,5.40
2023-04-28T15:38:34.011Z,5.32
2023-04-28T15:41:01.483Z,6.13
2023-04-28T15:43:28.736Z,6.45
2023-04-28T15:45:56.184Z,2.00
2023-04-28T15:48:23.456Z,4.65
2023-04-28T15:50:50.834Z,4.70
2023-04-28T15:53:21.404Z,3.47
2023-04-28T15:55:49.006Z,4.78
2023-04-28T15:58:16.563Z,3.42
2023-04-28T16:00:45.775Z,1.38
2023-04-28T16:03:13.209Z,5.35
2023-04-28T16:05:40.662Z,4.70
2023-04-28T16:08:08.092Z,2.72
2023-04-28T16:10:35.359Z,3.63
2023-04-28T16:13:02.790Z,3.30
2023-04-28T16:15:30.044Z,3.10
2023-04-28T16:17:57.670Z,1.33
2023-04-28T16:20:25.022Z,1.67
2023-04-28T16:22:52.981Z,2.17
2023-04-28T16:25:20.226Z,2.33
2023-04-28T16:27:47.874Z,1.27
2023-04-28T16:30:15.170Z,1.27
2023-04-28T16:32:42.714Z,2.43
2023-04-28T16:35:15.153Z,3.40
2023-04-28T16:37:43.549Z,2.13
2023-04-28T16:40:11.580Z,4.53
2023-04-28T16:42:38.889Z,1.50
2023-04-28T16:45:06.373Z,1.30
2023-04-28T16:47:34.090Z,1.52
2023-04-28T16:50:01.447Z,2.45
2023-04-28T16:52:28.767Z,1.95
2023-04-28T16:54:56.098Z,2.40
2023-04-28T16:57:23.411Z,1.13
2023-04-28T16:59:51.082Z,2.17
2023-04-28T17:02:18.616Z,1.10
2023-04-28T17:04:46.078Z,1.27
2023-04-28T17:07:15.712Z,5.00
2023-04-28T17:09:45.538Z,2.33
2023-04-28T17:12:12.754Z,2.53
2023-04-28T17:14:40.129Z,2.93
2023-04-28T17:17:08.076Z,1.52
2023-04-28T17:19:35.718Z,0.80
2023-04-28T17:22:03.476Z,0.80
2023-04-28T17:24:33.464Z,1.52
2023-04-28T17:27:03.250Z,1.63
2023-04-28T17:29:31.098Z,2.10
2023-04-28T17:31:58.376Z,1.80
2023-04-28T17:34:25.920Z,6.13
2023-04-28T17:36:53.240Z,1.45
2023-04-28T17:39:20.568Z,2.57
2023-04-28T17:41:47.837Z,1.57
2023-04-28T17:44:15.064Z,0.80
2023-04-28T17:46:42.457Z,2.10
2023-04-28T17:49:11.936Z,0.80
2023-04-28T17:51:39.237Z,1.23
2023-04-28T17:54:09.556Z,2.17
2023-04-28T17:56:38.275Z,2.20
2023-04-28T17:59:06.083Z,2.88
2023-04-28T18:01:35.140Z,2.00
2023-04-28T18:04:02.490Z,3.15
2023-04-28T18:06:29.877Z,3.53
2023-04-28T18:08:57.244Z,1.50
2023-04-28T18:11:24.589Z,1.27
2023-04-28T18:13:51.832Z,1.43
2023-04-28T18:16:19.198Z,1.13
2023-04-28T18:18:46.498Z,1.70
2023-04-28T18:21:13.753Z,1.07
2023-04-28T18:23:41.074Z,1.03
2023-04-28T18:26:08.727Z,1.77
2023-04-28T18:28:35.962Z,1.45
2023-04-28T18:31:05.087Z,1.27
2023-04-28T18:33:32.447Z,3.00
2023-04-28T18:36:05.087Z,1.13
2023-04-28T18:38:34.611Z,3.00
2023-04-28T18:41:02.327Z,1.40
2023-04-28T18:43:29.814Z,2.10
2023-04-28T18:46:04.313Z,1.90
2023-04-28T18:48:32.096Z,1.60
2023-04-28T18:51:01.950Z,0.70
2023-04-28T18:53:29.520Z,1.55
2023-04-28T18:55:58.284Z,1.42
2023-04-28T18:58:25.631Z,0.95
2023-04-28T19:00:53.853Z,0.87
2023-04-28T19:03:21.367Z,3.92
2023-04-28T19:05:48.694Z,0.60
2023-04-28T19:08:18.202Z,1.33
2023-04-28T19:10:45.528Z,2.15
2023-04-28T19:13:13.558Z,0.77
2023-04-28T19:18:08.112Z,1.90
2023-04-28T19:20:35.808Z,1.52
2023-04-28T19:23:03.828Z,1.10
2023-04-28T19:28:00.927Z,1.45
2023-04-28T19:30:28.231Z,0.93
2023-04-28T19:32:55.564Z,0.87
2023-04-28T19:35:22.941Z,2.75
2023-04-28T19:37:53.027Z,0.80
2023-04-28T19:40:22.160Z,0.80
2023-04-28T19:42:49.560Z,1.05
2023-04-28T19:45:17.569Z,0.95
2023-04-28T19:47:44.855Z,0.88
2023-04-28T19:50:14.711Z,1.10
2023-04-28T19:52:42.007Z,0.90
2023-04-28T19:55:12.415Z,0.93
2023-04-28T19:57:40.055Z,1.27
2023-04-28T20:00:10.184Z,1.10
2023-04-28T20:02:37.712Z,0.70
2023-04-28T20:05:05.854Z,0.73
2023-04-28T20:10:00.881Z,1.95
2023-04-28T20:12:28.784Z,0.93
2023-04-28T20:14:56.062Z,2.10
2023-04-28T20:17:23.335Z,0.70
2023-04-28T20:19:51.136Z,1.10
2023-04-28T20:24:45.769Z,1.03
2023-04-28T20:27:15.284Z,1.00
2023-04-28T20:29:42.636Z,0.70
2023-04-28T20:32:12.372Z,0.70
2023-04-28T20:34:39.650Z,0.70
2023-04-28T20:37:08.109Z,0.77
2023-04-28T20:39:35.490Z,1.23
2023-04-28T20:42:03.119Z,1.37
2023-04-28T20:44:30.328Z,1.55
2023-04-28T20:46:57.809Z,2.92
2023-04-28T20:49:25.218Z,0.80
2023-04-28T20:51:52.555Z,0.77
2023-04-28T20:54:22.066Z,1.10
2023-04-28T20:56:49.302Z,0.80
2023-04-28T20:59:16.531Z,1.13
2023-04-28T21:01:44.726Z,0.80
2023-04-28T21:04:12.146Z,1.85
2023-04-28T21:06:39.525Z,1.23
2023-04-28T21:09:06.826Z,1.17
2023-04-28T21:11:34.112Z,0.70
2023-04-28T21:14:01.479Z,0.80
2023-04-28T21:16:28.764Z,0.95
2023-04-28T21:18:56.718Z,0.80
2023-04-28T21:21:23.965Z,0.90
2023-04-28T21:23:51.210Z,1.20
2023-04-28T21:26:21.861Z,1.30
2023-04-28T21:28:50.305Z,1.23
2023-04-28T21:31:19.870Z,1.17
2023-04-28T21:33:47.125Z,1.70
2023-04-28T21:36:16.583Z,1.35
2023-04-28T21:38:43.917Z,1.05
2023-04-28T21:41:13.013Z,1.43
2023-04-28T21:43:40.575Z,1.30
2023-04-28T21:46:07.986Z,1.63
2023-04-28T21:48:35.544Z,1.42
2023-04-28T21:51:02.858Z,1.65
2023-04-28T21:53:30.087Z,1.90
2023-04-28T21:55:57.444Z,1.13
2023-04-28T21:58:24.722Z,1.50
2023-04-28T22:00:52.381Z,2.27
2023-04-28T22:03:21.866Z,1.20
2023-04-28T22:05:49.418Z,1.30
2023-04-28T22:08:17.069Z,1.30
2023-04-28T22:10:47.842Z,1.40
2023-04-28T22:13:15.887Z,1.65
2023-04-28T22:15:43.309Z,2.15
2023-04-28T22:18:10.569Z,1.58
2023-04-28T22:20:40.585Z,1.40
2023-04-28T22:23:08.198Z,1.52
2023-04-28T22:25:35.521Z,1.30
2023-04-28T22:28:02.924Z,1.40
2023-04-28T22:30:33.217Z,2.72
2023-04-28T22:33:00.579Z,1.40
2023-04-28T22:35:28.121Z,1.43
2023-04-28T22:37:55.379Z,1.10
2023-04-28T22:40:22.635Z,1.87
2023-04-28T22:42:50.163Z,1.20
2023-04-28T22:45:17.372Z,1.33
2023-04-28T22:47:44.726Z,1.40
2023-04-28T22:50:12.804Z,2.58
2023-04-28T22:52:40.306Z,1.60
2023-04-28T22:55:07.740Z,1.77
2023-04-28T22:57:35.038Z,1.50
2023-04-28T23:00:02.356Z,1.43
2023-04-28T23:02:29.761Z,1.23
2023-04-28T23:04:57.452Z,1.40
2023-04-28T23:07:27.350Z,2.42
2023-04-28T23:09:54.787Z,2.53
2023-04-28T23:12:22.122Z,1.98
2023-04-28T23:14:49.330Z,1.52
2023-04-28T23:17:16.616Z,1.47
2023-04-28T23:19:43.908Z,1.63
2023-04-28T23:22:11.151Z,1.63
2023-04-28T23:24:39.995Z,1.47
2023-04-28T23:27:07.394Z,1.75
2023-04-28T23:29:35.915Z,1.67
2023-04-28T23:32:04.033Z,1.30
2023-04-28T23:37:01.462Z,1.55
2023-04-28T23:39:30.110Z,1.50
2023-04-28T23:41:58.673Z,1.60
2023-04-28T23:44:25.956Z,1.88
2023-04-28T23:46:55.914Z,1.67
2023-04-28T23:49:23.836Z,1.67
2023-04-28T23:51:51.128Z,1.60
2023-04-28T23:54:18.346Z,1.40
2023-04-28T23:56:45.594Z,1.57
2023-04-28T23:59:12.792Z,1.87
